sensor_id;sensor_type;location;lat;lon;timestamp;P1;durP1;ratioP1;P2;durP2;ratioP2
60610;SDS011;46439;51.164;13.572;2023-12-22T00:00:11;7.50;;;1.80;;
60610;SDS011;46439;51.164;13.572;2023-12-22T00:02:39;11.10;;;2.20;;
60610;SDS011;46439;51.164;13.572;2023-12-22T00:05:08;9.90;;;2.20;;
60610;SDS011;46439;51.164;13.572;2023-12-22T00:07:36;9.90;;;2.20;;
60610;SDS011;46439;51.164;13.572;2023-12-22T00:10:04;11.50;;;2.50;;
60610;SDS011;46439;51.164;13.572;2023-12-22T00:12:33;14.30;;;3.00;;
60610;SDS011;46439;51.164;13.572;2023-12-22T00:15:01;13.30;;;2.70;;
60610;SDS011;46439;51.164;13.572;2023-12-22T00:17:30;10.90;;;2.50;;
60610;SDS011;46439;51.164;13.572;2023-12-22T00:19:59;11.60;;;2.80;;
60610;SDS011;46439;51.164;13.572;2023-12-22T00:22:49;9.70;;;2.20;;
60610;SDS011;46439;51.164;13.572;2023-12-22T00:25:17;11.80;;;2.30;;
60610;SDS011;46439;51.164;13.572;2023-12-22T00:27:46;14.20;;;2.80;;
60610;SDS011;46439;51.164;13.572;2023-12-22T00:30:14;11.90;;;2.90;;
60610;SDS011;46439;51.164;13.572;2023-12-22T00:32:43;14.90;;;3.00;;
60610;SDS011;46439;51.164;13.572;2023-12-22T00:35:11;16.40;;;2.80;;
60610;SDS011;46439;51.164;13.572;2023-12-22T00:37:41;7.90;;;2.10;;
60610;SDS011;46439;51.164;13.572;2023-12-22T00:40:10;13.30;;;2.40;;
60610;SDS011;46439;51.164;13.572;2023-12-22T00:42:39;13.40;;;2.40;;
60610;SDS011;46439;51.164;13.572;2023-12-22T00:45:07;10.10;;;2.10;;
60610;SDS011;46439;51.164;13.572;2023-12-22T00:47:37;16.60;;;2.80;;
60610;SDS011;46439;51.164;13.572;2023-12-22T00:50:06;9.30;;;2.20;;
60610;SDS011;46439;51.164;13.572;2023-12-22T00:52:34;13.90;;;2.40;;
60610;SDS011;46439;51.164;13.572;2023-12-22T00:55:03;11.60;;;2.30;;
60610;SDS011;46439;51.164;13.572;2023-12-22T00:57:31;9.50;;;2.50;;
60610;SDS011;46439;51.164;13.572;2023-12-22T00:59:59;11.60;;;2.00;;
60610;SDS011;46439;51.164;13.572;2023-12-22T01:02:27;10.70;;;2.40;;
60610;SDS011;46439;51.164;13.572;2023-12-22T01:04:56;13.70;;;2.50;;
60610;SDS011;46439;51.164;13.572;2023-12-22T01:07:30;7.30;;;2.40;;
60610;SDS011;46439;51.164;13.572;2023-12-22T01:09:58;8.00;;;2.50;;
60610;SDS011;46439;51.164;13.572;2023-12-22T01:12:28;14.70;;;2.80;;
60610;SDS011;46439;51.164;13.572;2023-12-22T01:14:56;12.60;;;2.40;;
60610;SDS011;46439;51.164;13.572;2023-12-22T01:17:24;13.60;;;2.00;;
60610;SDS011;46439;51.164;13.572;2023-12-22T01:19:52;9.80;;;2.20;;
60610;SDS011;46439;51.164;13.572;2023-12-22T01:22:21;9.70;;;2.20;;
60610;SDS011;46439;51.164;13.572;2023-12-22T01:24:49;9.10;;;2.40;;
60610;SDS011;46439;51.164;13.572;2023-12-22T01:27:37;6.50;;;2.20;;
60610;SDS011;46439;51.164;13.572;2023-12-22T01:30:07;9.10;;;2.20;;
60610;SDS011;46439;51.164;13.572;2023-12-22T01:32:35;10.90;;;2.30;;
60610;SDS011;46439;51.164;13.572;2023-12-22T01:35:04;14.00;;;2.60;;
60610;SDS011;46439;51.164;13.572;2023-12-22T01:37:36;11.10;;;2.30;;
60610;SDS011;46439;51.164;13.572;2023-12-22T01:40:05;13.80;;;2.50;;
60610;SDS011;46439;51.164;13.572;2023-12-22T01:42:35;11.10;;;2.80;;
60610;SDS011;46439;51.164;13.572;2023-12-22T01:45:03;8.40;;;2.00;;
60610;SDS011;46439;51.164;13.572;2023-12-22T01:47:33;8.30;;;2.10;;
60610;SDS011;46439;51.164;13.572;2023-12-22T01:50:01;14.00;;;2.80;;
60610;SDS011;46439;51.164;13.572;2023-12-22T01:52:31;18.30;;;3.10;;
60610;SDS011;46439;51.164;13.572;2023-12-22T01:55:00;15.80;;;2.80;;
60610;SDS011;46439;51.164;13.572;2023-12-22T01:57:28;10.10;;;2.50;;
60610;SDS011;46439;51.164;13.572;2023-12-22T01:59:57;15.80;;;3.20;;
60610;SDS011;46439;51.164;13.572;2023-12-22T02:02:25;10.30;;;2.10;;
60610;SDS011;46439;51.164;13.572;2023-12-22T02:04:54;11.00;;;2.40;;
60610;SDS011;46439;51.164;13.572;2023-12-22T02:07:23;10.40;;;2.50;;
60610;SDS011;46439;51.164;13.572;2023-12-22T02:09:51;8.90;;;2.40;;
60610;SDS011;46439;51.164;13.572;2023-12-22T02:12:25;8.60;;;2.40;;
60610;SDS011;46439;51.164;13.572;2023-12-22T02:14:53;14.60;;;3.20;;
60610;SDS011;46439;51.164;13.572;2023-12-22T02:17:23;9.70;;;2.40;;
60610;SDS011;46439;51.164;13.572;2023-12-22T02:19:57;14.30;;;2.50;;
60610;SDS011;46439;51.164;13.572;2023-12-22T02:22:29;12.90;;;2.70;;
60610;SDS011;46439;51.164;13.572;2023-12-22T02:24:57;8.20;;;2.00;;
60610;SDS011;46439;51.164;13.572;2023-12-22T02:27:28;12.90;;;2.50;;
60610;SDS011;46439;51.164;13.572;2023-12-22T02:30:02;12.30;;;2.40;;
60610;SDS011;46439;51.164;13.572;2023-12-22T02:32:34;10.70;;;2.30;;
60610;SDS011;46439;51.164;13.572;2023-12-22T02:35:11;10.10;;;2.60;;
60610;SDS011;46439;51.164;13.572;2023-12-22T02:37:44;14.10;;;3.20;;
60610;SDS011;46439;51.164;13.572;2023-12-22T02:40:14;18.00;;;2.90;;
60610;SDS011;46439;51.164;13.572;2023-12-22T02:42:43;11.30;;;2.30;;
60610;SDS011;46439;51.164;13.572;2023-12-22T02:45:14;13.90;;;2.60;;
60610;SDS011;46439;51.164;13.572;2023-12-22T02:47:43;17.40;;;3.20;;
60610;SDS011;46439;51.164;13.572;2023-12-22T02:50:12;13.40;;;2.30;;
60610;SDS011;46439;51.164;13.572;2023-12-22T02:52:42;11.90;;;2.90;;
60610;SDS011;46439;51.164;13.572;2023-12-22T02:55:10;25.10;;;3.10;;
60610;SDS011;46439;51.164;13.572;2023-12-22T02:57:38;16.30;;;2.70;;
60610;SDS011;46439;51.164;13.572;2023-12-22T03:00:07;14.40;;;3.20;;
60610;SDS011;46439;51.164;13.572;2023-12-22T03:02:36;16.30;;;2.90;;
60610;SDS011;46439;51.164;13.572;2023-12-22T03:05:05;13.30;;;2.70;;
60610;SDS011;46439;51.164;13.572;2023-12-22T03:07:34;15.90;;;2.30;;
60610;SDS011;46439;51.164;13.572;2023-12-22T03:10:02;13.70;;;2.80;;
60610;SDS011;46439;51.164;13.572;2023-12-22T03:12:31;15.70;;;3.20;;
60610;SDS011;46439;51.164;13.572;2023-12-22T03:14:59;17.80;;;3.00;;
60610;SDS011;46439;51.164;13.572;2023-12-22T03:17:27;12.20;;;2.90;;
60610;SDS011;46439;51.164;13.572;2023-12-22T03:19:55;15.40;;;3.20;;
60610;SDS011;46439;51.164;13.572;2023-12-22T03:22:23;18.40;;;3.20;;
60610;SDS011;46439;51.164;13.572;2023-12-22T03:24:51;19.50;;;2.90;;
60610;SDS011;46439;51.164;13.572;2023-12-22T03:27:19;18.80;;;2.80;;
60610;SDS011;46439;51.164;13.572;2023-12-22T03:29:47;15.40;;;2.90;;
60610;SDS011;46439;51.164;13.572;2023-12-22T03:32:16;12.50;;;2.50;;
60610;SDS011;46439;51.164;13.572;2023-12-22T03:34:44;14.10;;;3.10;;
60610;SDS011;46439;51.164;13.572;2023-12-22T03:37:12;16.90;;;3.20;;
60610;SDS011;46439;51.164;13.572;2023-12-22T03:39:40;12.10;;;2.50;;
60610;SDS011;46439;51.164;13.572;2023-12-22T03:42:08;13.80;;;2.50;;
60610;SDS011;46439;51.164;13.572;2023-12-22T03:44:36;15.00;;;2.80;;
60610;SDS011;46439;51.164;13.572;2023-12-22T03:47:04;9.90;;;2.30;;
60610;SDS011;46439;51.164;13.572;2023-12-22T03:49:32;9.50;;;2.20;;
60610;SDS011;46439;51.164;13.572;2023-12-22T03:52:00;8.90;;;2.40;;
60610;SDS011;46439;51.164;13.572;2023-12-22T03:54:29;20.60;;;3.10;;
60610;SDS011;46439;51.164;13.572;2023-12-22T03:56:57;12.00;;;2.30;;
60610;SDS011;46439;51.164;13.572;2023-12-22T03:59:25;7.90;;;2.00;;
60610;SDS011;46439;51.164;13.572;2023-12-22T04:01:53;12.30;;;2.10;;
60610;SDS011;46439;51.164;13.572;2023-12-22T04:04:23;12.30;;;2.10;;
60610;SDS011;46439;51.164;13.572;2023-12-22T04:06:54;10.20;;;2.40;;
60610;SDS011;46439;51.164;13.572;2023-12-22T04:09:22;9.30;;;2.20;;
60610;SDS011;46439;51.164;13.572;2023-12-22T04:11:50;12.90;;;2.40;;
60610;SDS011;46439;51.164;13.572;2023-12-22T04:14:18;11.80;;;2.30;;
60610;SDS011;46439;51.164;13.572;2023-12-22T04:16:46;10.70;;;2.30;;
60610;SDS011;46439;51.164;13.572;2023-12-22T04:19:14;8.60;;;2.30;;
60610;SDS011;46439;51.164;13.572;2023-12-22T04:21:42;9.80;;;2.30;;
60610;SDS011;46439;51.164;13.572;2023-12-22T04:24:10;13.00;;;2.20;;
60610;SDS011;46439;51.164;13.572;2023-12-22T04:26:38;8.90;;;2.30;;
60610;SDS011;46439;51.164;13.572;2023-12-22T04:29:06;7.80;;;2.90;;
60610;SDS011;46439;51.164;13.572;2023-12-22T04:31:35;12.00;;;2.50;;
60610;SDS011;46439;51.164;13.572;2023-12-22T04:34:03;12.80;;;2.40;;
60610;SDS011;46439;51.164;13.572;2023-12-22T04:36:31;8.30;;;1.90;;
60610;SDS011;46439;51.164;13.572;2023-12-22T04:38:59;12.40;;;2.30;;
60610;SDS011;46439;51.164;13.572;2023-12-22T04:41:27;9.40;;;2.40;;
60610;SDS011;46439;51.164;13.572;2023-12-22T04:43:55;13.80;;;2.20;;
60610;SDS011;46439;51.164;13.572;2023-12-22T04:46:23;10.60;;;2.40;;
60610;SDS011;46439;51.164;13.572;2023-12-22T04:48:51;7.40;;;1.80;;
60610;SDS011;46439;51.164;13.572;2023-12-22T04:51:20;9.80;;;2.30;;
60610;SDS011;46439;51.164;13.572;2023-12-22T04:53:48;9.00;;;2.30;;
60610;SDS011;46439;51.164;13.572;2023-12-22T04:56:16;12.90;;;2.10;;
60610;SDS011;46439;51.164;13.572;2023-12-22T04:58:44;5.70;;;1.60;;
60610;SDS011;46439;51.164;13.572;2023-12-22T05:01:12;7.50;;;1.50;;
60610;SDS011;46439;51.164;13.572;2023-12-22T05:03:40;8.70;;;1.70;;
60610;SDS011;46439;51.164;13.572;2023-12-22T05:06:08;6.90;;;1.40;;
60610;SDS011;46439;51.164;13.572;2023-12-22T05:08:36;5.00;;;1.20;;
60610;SDS011;46439;51.164;13.572;2023-12-22T05:11:04;3.80;;;1.10;;
60610;SDS011;46439;51.164;13.572;2023-12-22T05:13:32;6.60;;;1.50;;
60610;SDS011;46439;51.164;13.572;2023-12-22T05:16:00;2.20;;;1.00;;
60610;SDS011;46439;51.164;13.572;2023-12-22T05:18:31;3.80;;;1.50;;
60610;SDS011;46439;51.164;13.572;2023-12-22T05:20:59;4.20;;;1.40;;
60610;SDS011;46439;51.164;13.572;2023-12-22T05:23:27;3.60;;;1.40;;
60610;SDS011;46439;51.164;13.572;2023-12-22T05:25:55;4.20;;;1.40;;
60610;SDS011;46439;51.164;13.572;2023-12-22T05:28:23;5.80;;;1.60;;
60610;SDS011;46439;51.164;13.572;2023-12-22T05:30:51;6.60;;;1.50;;
60610;SDS011;46439;51.164;13.572;2023-12-22T05:33:19;5.00;;;1.80;;
60610;SDS011;46439;51.164;13.572;2023-12-22T05:35:47;4.10;;;1.40;;
60610;SDS011;46439;51.164;13.572;2023-12-22T05:38:15;5.00;;;1.10;;
60610;SDS011;46439;51.164;13.572;2023-12-22T05:40:43;6.10;;;1.40;;
60610;SDS011;46439;51.164;13.572;2023-12-22T05:43:11;8.10;;;1.70;;
60610;SDS011;46439;51.164;13.572;2023-12-22T05:45:40;5.80;;;1.70;;
60610;SDS011;46439;51.164;13.572;2023-12-22T05:48:08;6.10;;;1.50;;
60610;SDS011;46439;51.164;13.572;2023-12-22T05:50:36;7.90;;;2.20;;
60610;SDS011;46439;51.164;13.572;2023-12-22T05:53:04;6.00;;;1.50;;
60610;SDS011;46439;51.164;13.572;2023-12-22T05:55:32;5.40;;;1.50;;
60610;SDS011;46439;51.164;13.572;2023-12-22T05:58:00;8.20;;;1.50;;
60610;SDS011;46439;51.164;13.572;2023-12-22T06:00:29;6.50;;;1.30;;
60610;SDS011;46439;51.164;13.572;2023-12-22T06:02:57;7.60;;;1.70;;
60610;SDS011;46439;51.164;13.572;2023-12-22T06:05:26;8.70;;;1.70;;
60610;SDS011;46439;51.164;13.572;2023-12-22T06:07:55;7.60;;;1.40;;
60610;SDS011;46439;51.164;13.572;2023-12-22T06:10:23;5.10;;;1.80;;
60610;SDS011;46439;51.164;13.572;2023-12-22T06:12:51;3.00;;;1.20;;
60610;SDS011;46439;51.164;13.572;2023-12-22T06:15:19;7.10;;;2.10;;
60610;SDS011;46439;51.164;13.572;2023-12-22T06:17:47;7.70;;;1.80;;
60610;SDS011;46439;51.164;13.572;2023-12-22T06:20:15;5.40;;;1.70;;
60610;SDS011;46439;51.164;13.572;2023-12-22T06:22:43;3.30;;;1.10;;
60610;SDS011;46439;51.164;13.572;2023-12-22T06:25:11;6.10;;;1.60;;
60610;SDS011;46439;51.164;13.572;2023-12-22T06:27:39;6.40;;;1.70;;
60610;SDS011;46439;51.164;13.572;2023-12-22T06:30:08;5.60;;;1.60;;
60610;SDS011;46439;51.164;13.572;2023-12-22T06:32:37;6.80;;;1.50;;
60610;SDS011;46439;51.164;13.572;2023-12-22T06:35:08;6.90;;;1.80;;
60610;SDS011;46439;51.164;13.572;2023-12-22T06:37:37;8.00;;;2.00;;
60610;SDS011;46439;51.164;13.572;2023-12-22T06:40:06;8.10;;;2.20;;
60610;SDS011;46439;51.164;13.572;2023-12-22T06:42:35;6.30;;;1.60;;
60610;SDS011;46439;51.164;13.572;2023-12-22T06:45:04;7.90;;;1.70;;
60610;SDS011;46439;51.164;13.572;2023-12-22T06:47:33;11.50;;;2.10;;
60610;SDS011;46439;51.164;13.572;2023-12-22T06:50:01;7.00;;;1.60;;
60610;SDS011;46439;51.164;13.572;2023-12-22T06:52:30;6.10;;;1.50;;
60610;SDS011;46439;51.164;13.572;2023-12-22T06:54:58;8.00;;;1.70;;
60610;SDS011;46439;51.164;13.572;2023-12-22T06:57:26;7.10;;;1.60;;
60610;SDS011;46439;51.164;13.572;2023-12-22T06:59:54;8.70;;;1.90;;
60610;SDS011;46439;51.164;13.572;2023-12-22T07:02:22;4.50;;;1.50;;
60610;SDS011;46439;51.164;13.572;2023-12-22T07:05:01;5.00;;;1.60;;
60610;SDS011;46439;51.164;13.572;2023-12-22T07:07:51;6.30;;;1.40;;
60610;SDS011;46439;51.164;13.572;2023-12-22T07:10:19;8.20;;;1.90;;
60610;SDS011;46439;51.164;13.572;2023-12-22T07:12:47;11.00;;;2.70;;
60610;SDS011;46439;51.164;13.572;2023-12-22T07:15:15;5.50;;;1.40;;
60610;SDS011;46439;51.164;13.572;2023-12-22T07:17:44;7.40;;;1.90;;
60610;SDS011;46439;51.164;13.572;2023-12-22T07:20:12;4.40;;;1.40;;
60610;SDS011;46439;51.164;13.572;2023-12-22T07:22:40;6.80;;;2.20;;
60610;SDS011;46439;51.164;13.572;2023-12-22T07:25:10;6.00;;;1.80;;
60610;SDS011;46439;51.164;13.572;2023-12-22T07:27:38;6.30;;;1.60;;
60610;SDS011;46439;51.164;13.572;2023-12-22T07:30:07;8.30;;;2.30;;
60610;SDS011;46439;51.164;13.572;2023-12-22T07:32:38;4.90;;;1.80;;
60610;SDS011;46439;51.164;13.572;2023-12-22T07:35:07;5.20;;;1.80;;
60610;SDS011;46439;51.164;13.572;2023-12-22T07:37:36;6.90;;;1.80;;
60610;SDS011;46439;51.164;13.572;2023-12-22T07:40:05;4.10;;;1.50;;
60610;SDS011;46439;51.164;13.572;2023-12-22T07:42:35;6.10;;;1.70;;
60610;SDS011;46439;51.164;13.572;2023-12-22T07:45:05;5.80;;;1.80;;
60610;SDS011;46439;51.164;13.572;2023-12-22T07:47:35;6.30;;;1.40;;
60610;SDS011;46439;51.164;13.572;2023-12-22T07:50:04;5.70;;;1.60;;
60610;SDS011;46439;51.164;13.572;2023-12-22T07:52:34;5.20;;;1.30;;
60610;SDS011;46439;51.164;13.572;2023-12-22T07:55:07;5.40;;;1.60;;
60610;SDS011;46439;51.164;13.572;2023-12-22T07:57:38;7.80;;;1.50;;
60610;SDS011;46439;51.164;13.572;2023-12-22T08:00:08;4.70;;;1.70;;
60610;SDS011;46439;51.164;13.572;2023-12-22T08:02:41;1.80;;;0.90;;
60610;SDS011;46439;51.164;13.572;2023-12-22T08:05:09;3.10;;;0.90;;
60610;SDS011;46439;51.164;13.572;2023-12-22T08:07:38;1.20;;;0.80;;
60610;SDS011;46439;51.164;13.572;2023-12-22T08:10:13;1.20;;;0.50;;
60610;SDS011;46439;51.164;13.572;2023-12-22T08:12:42;2.90;;;0.90;;
60610;SDS011;46439;51.164;13.572;2023-12-22T08:15:10;1.30;;;0.60;;
60610;SDS011;46439;51.164;13.572;2023-12-22T08:17:39;2.40;;;1.10;;
60610;SDS011;46439;51.164;13.572;2023-12-22T08:20:17;2.40;;;0.60;;
60610;SDS011;46439;51.164;13.572;2023-12-22T08:22:45;3.80;;;0.70;;
60610;SDS011;46439;51.164;13.572;2023-12-22T08:25:14;1.40;;;0.70;;
60610;SDS011;46439;51.164;13.572;2023-12-22T08:27:49;1.40;;;0.40;;
60610;SDS011;46439;51.164;13.572;2023-12-22T08:30:18;1.40;;;1.00;;
60610;SDS011;46439;51.164;13.572;2023-12-22T08:32:46;4.30;;;1.20;;
60610;SDS011;46439;51.164;13.572;2023-12-22T08:35:14;4.00;;;2.20;;
60610;SDS011;46439;51.164;13.572;2023-12-22T08:37:43;3.50;;;1.80;;
60610;SDS011;46439;51.164;13.572;2023-12-22T08:40:12;22.30;;;9.00;;
60610;SDS011;46439;51.164;13.572;2023-12-22T08:42:40;5.30;;;2.20;;
60610;SDS011;46439;51.164;13.572;2023-12-22T08:45:09;4.80;;;1.60;;
60610;SDS011;46439;51.164;13.572;2023-12-22T08:47:37;4.20;;;1.30;;
60610;SDS011;46439;51.164;13.572;2023-12-22T08:50:06;3.10;;;1.60;;
60610;SDS011;46439;51.164;13.572;2023-12-22T08:52:36;3.50;;;1.40;;
60610;SDS011;46439;51.164;13.572;2023-12-22T08:55:05;4.00;;;1.50;;
60610;SDS011;46439;51.164;13.572;2023-12-22T08:57:34;3.40;;;1.20;;
60610;SDS011;46439;51.164;13.572;2023-12-22T09:00:02;5.70;;;2.00;;
60610;SDS011;46439;51.164;13.572;2023-12-22T09:02:31;5.90;;;1.30;;
60610;SDS011;46439;51.164;13.572;2023-12-22T09:05:00;6.60;;;1.30;;
60610;SDS011;46439;51.164;13.572;2023-12-22T09:07:29;4.60;;;1.70;;
60610;SDS011;46439;51.164;13.572;2023-12-22T09:09:57;3.80;;;2.30;;
60610;SDS011;46439;51.164;13.572;2023-12-22T09:12:25;9.10;;;1.80;;
60610;SDS011;46439;51.164;13.572;2023-12-22T09:14:54;5.40;;;1.20;;
60610;SDS011;46439;51.164;13.572;2023-12-22T09:17:22;2.50;;;1.00;;
60610;SDS011;46439;51.164;13.572;2023-12-22T09:19:52;3.40;;;1.40;;
60610;SDS011;46439;51.164;13.572;2023-12-22T09:22:20;4.40;;;2.20;;
60610;SDS011;46439;51.164;13.572;2023-12-22T09:24:49;2.70;;;1.50;;
60610;SDS011;46439;51.164;13.572;2023-12-22T09:27:17;3.00;;;1.00;;
60610;SDS011;46439;51.164;13.572;2023-12-22T09:29:46;3.60;;;0.90;;
60610;SDS011;46439;51.164;13.572;2023-12-22T09:32:14;1.60;;;1.00;;
60610;SDS011;46439;51.164;13.572;2023-12-22T09:34:43;1.00;;;0.80;;
60610;SDS011;46439;51.164;13.572;2023-12-22T09:37:11;3.50;;;0.90;;
60610;SDS011;46439;51.164;13.572;2023-12-22T09:39:39;1.70;;;1.00;;
60610;SDS011;46439;51.164;13.572;2023-12-22T09:42:07;4.50;;;1.80;;
60610;SDS011;46439;51.164;13.572;2023-12-22T09:44:36;6.60;;;1.50;;
60610;SDS011;46439;51.164;13.572;2023-12-22T09:47:05;2.50;;;1.10;;
60610;SDS011;46439;51.164;13.572;2023-12-22T09:49:36;2.30;;;1.00;;
60610;SDS011;46439;51.164;13.572;2023-12-22T09:52:06;2.70;;;1.20;;
60610;SDS011;46439;51.164;13.572;2023-12-22T09:54:34;5.10;;;1.50;;
60610;SDS011;46439;51.164;13.572;2023-12-22T09:57:04;4.80;;;1.80;;
60610;SDS011;46439;51.164;13.572;2023-12-22T09:59:34;4.60;;;1.30;;
60610;SDS011;46439;51.164;13.572;2023-12-22T10:02:04;2.20;;;1.00;;
60610;SDS011;46439;51.164;13.572;2023-12-22T10:04:34;3.40;;;1.10;;
60610;SDS011;46439;51.164;13.572;2023-12-22T10:07:02;4.30;;;1.00;;
60610;SDS011;46439;51.164;13.572;2023-12-22T10:09:31;6.80;;;1.70;;
60610;SDS011;46439;51.164;13.572;2023-12-22T10:12:00;4.80;;;1.30;;
60610;SDS011;46439;51.164;13.572;2023-12-22T10:14:30;5.50;;;1.40;;
60610;SDS011;46439;51.164;13.572;2023-12-22T10:17:02;3.90;;;1.00;;
60610;SDS011;46439;51.164;13.572;2023-12-22T10:19:30;4.30;;;1.20;;
60610;SDS011;46439;51.164;13.572;2023-12-22T10:21:58;7.30;;;1.60;;
60610;SDS011;46439;51.164;13.572;2023-12-22T10:24:39;7.20;;;1.70;;
60610;SDS011;46439;51.164;13.572;2023-12-22T10:27:11;5.60;;;1.40;;
60610;SDS011;46439;51.164;13.572;2023-12-22T10:29:40;5.40;;;1.20;;
60610;SDS011;46439;51.164;13.572;2023-12-22T10:32:08;1.90;;;1.00;;
60610;SDS011;46439;51.164;13.572;2023-12-22T10:34:36;5.10;;;1.00;;
60610;SDS011;46439;51.164;13.572;2023-12-22T10:37:04;3.60;;;1.20;;
60610;SDS011;46439;51.164;13.572;2023-12-22T10:39:32;4.60;;;1.30;;
60610;SDS011;46439;51.164;13.572;2023-12-22T10:42:03;5.00;;;1.40;;
60610;SDS011;46439;51.164;13.572;2023-12-22T10:44:31;7.50;;;1.20;;
60610;SDS011;46439;51.164;13.572;2023-12-22T10:47:00;5.00;;;1.20;;
60610;SDS011;46439;51.164;13.572;2023-12-22T10:49:29;3.90;;;1.10;;
60610;SDS011;46439;51.164;13.572;2023-12-22T10:51:58;3.90;;;1.30;;
60610;SDS011;46439;51.164;13.572;2023-12-22T10:54:26;4.20;;;1.30;;
60610;SDS011;46439;51.164;13.572;2023-12-22T10:56:55;2.30;;;1.00;;
60610;SDS011;46439;51.164;13.572;2023-12-22T10:59:27;2.40;;;1.00;;
60610;SDS011;46439;51.164;13.572;2023-12-22T11:01:59;4.00;;;1.70;;
60610;SDS011;46439;51.164;13.572;2023-12-22T11:04:31;2.80;;;1.00;;
60610;SDS011;46439;51.164;13.572;2023-12-22T11:07:03;2.00;;;0.90;;
60610;SDS011;46439;51.164;13.572;2023-12-22T11:09:33;1.00;;;0.70;;
60610;SDS011;46439;51.164;13.572;2023-12-22T11:12:05;5.10;;;1.10;;
60610;SDS011;46439;51.164;13.572;2023-12-22T11:14:33;3.80;;;1.30;;
60610;SDS011;46439;51.164;13.572;2023-12-22T11:17:04;3.70;;;1.50;;
60610;SDS011;46439;51.164;13.572;2023-12-22T11:19:34;3.30;;;1.70;;
60610;SDS011;46439;51.164;13.572;2023-12-22T11:22:04;3.50;;;1.70;;
60610;SDS011;46439;51.164;13.572;2023-12-22T11:24:35;8.20;;;3.30;;
60610;SDS011;46439;51.164;13.572;2023-12-22T11:27:07;13.30;;;5.20;;
60610;SDS011;46439;51.164;13.572;2023-12-22T11:29:38;10.00;;;4.20;;
60610;SDS011;46439;51.164;13.572;2023-12-22T11:32:09;7.40;;;3.20;;
60610;SDS011;46439;51.164;13.572;2023-12-22T11:37:08;4.60;;;1.00;;
60610;SDS011;46439;51.164;13.572;2023-12-22T11:39:37;4.30;;;1.40;;
60610;SDS011;46439;51.164;13.572;2023-12-22T11:42:06;6.40;;;1.20;;
60610;SDS011;46439;51.164;13.572;2023-12-22T11:44:36;4.20;;;1.40;;
60610;SDS011;46439;51.164;13.572;2023-12-22T11:47:06;6.40;;;1.30;;
60610;SDS011;46439;51.164;13.572;2023-12-22T11:49:35;7.10;;;1.40;;
60610;SDS011;46439;51.164;13.572;2023-12-22T11:52:10;7.80;;;1.70;;
60610;SDS011;46439;51.164;13.572;2023-12-22T11:54:49;5.80;;;1.70;;
60610;SDS011;46439;51.164;13.572;2023-12-22T11:57:31;12.60;;;4.40;;
60610;SDS011;46439;51.164;13.572;2023-12-22T12:00:02;5.70;;;2.00;;
60610;SDS011;46439;51.164;13.572;2023-12-22T12:02:37;8.20;;;1.80;;
60610;SDS011;46439;51.164;13.572;2023-12-22T12:05:08;5.30;;;2.10;;
60610;SDS011;46439;51.164;13.572;2023-12-22T12:07:45;7.00;;;2.30;;
60610;SDS011;46439;51.164;13.572;2023-12-22T12:13:14;3.30;;;1.30;;
60610;SDS011;46439;51.164;13.572;2023-12-22T12:15:48;5.90;;;1.80;;
60610;SDS011;46439;51.164;13.572;2023-12-22T12:18:18;5.50;;;1.50;;
60610;SDS011;46439;51.164;13.572;2023-12-22T12:20:52;7.20;;;1.70;;
60610;SDS011;46439;51.164;13.572;2023-12-22T12:23:20;6.60;;;2.00;;
60610;SDS011;46439;51.164;13.572;2023-12-22T12:25:51;5.60;;;1.80;;
60610;SDS011;46439;51.164;13.572;2023-12-22T12:28:19;7.40;;;2.00;;
60610;SDS011;46439;51.164;13.572;2023-12-22T12:30:57;7.30;;;1.80;;
60610;SDS011;46439;51.164;13.572;2023-12-22T12:33:27;7.70;;;2.10;;
60610;SDS011;46439;51.164;13.572;2023-12-22T12:35:56;5.10;;;1.90;;
60610;SDS011;46439;51.164;13.572;2023-12-22T12:38:42;6.80;;;2.40;;
60610;SDS011;46439;51.164;13.572;2023-12-22T12:41:15;5.90;;;1.40;;
60610;SDS011;46439;51.164;13.572;2023-12-22T12:43:50;4.60;;;1.40;;
60610;SDS011;46439;51.164;13.572;2023-12-22T12:46:21;5.80;;;2.30;;
60610;SDS011;46439;51.164;13.572;2023-12-22T12:48:49;6.80;;;2.00;;
60610;SDS011;46439;51.164;13.572;2023-12-22T12:51:31;4.60;;;1.60;;
60610;SDS011;46439;51.164;13.572;2023-12-22T12:54:04;3.90;;;1.30;;
60610;SDS011;46439;51.164;13.572;2023-12-22T12:56:37;8.60;;;1.80;;
60610;SDS011;46439;51.164;13.572;2023-12-22T12:59:08;7.30;;;1.60;;
60610;SDS011;46439;51.164;13.572;2023-12-22T13:01:38;9.60;;;2.10;;
60610;SDS011;46439;51.164;13.572;2023-12-22T13:04:07;6.90;;;2.00;;
60610;SDS011;46439;51.164;13.572;2023-12-22T13:06:35;5.60;;;1.40;;
60610;SDS011;46439;51.164;13.572;2023-12-22T13:09:08;3.00;;;1.60;;
60610;SDS011;46439;51.164;13.572;2023-12-22T13:11:37;4.50;;;1.60;;
60610;SDS011;46439;51.164;13.572;2023-12-22T13:14:06;5.60;;;2.00;;
60610;SDS011;46439;51.164;13.572;2023-12-22T13:16:34;5.90;;;1.50;;
60610;SDS011;46439;51.164;13.572;2023-12-22T13:19:03;4.10;;;1.50;;
60610;SDS011;46439;51.164;13.572;2023-12-22T13:21:32;4.00;;;1.80;;
60610;SDS011;46439;51.164;13.572;2023-12-22T13:24:10;4.00;;;1.70;;
60610;SDS011;46439;51.164;13.572;2023-12-22T13:26:40;3.20;;;1.20;;
60610;SDS011;46439;51.164;13.572;2023-12-22T13:29:09;4.40;;;1.60;;
60610;SDS011;46439;51.164;13.572;2023-12-22T13:31:39;2.40;;;1.10;;
60610;SDS011;46439;51.164;13.572;2023-12-22T13:34:10;1.80;;;1.10;;
60610;SDS011;46439;51.164;13.572;2023-12-22T13:36:39;1.00;;;0.80;;
60610;SDS011;46439;51.164;13.572;2023-12-22T13:39:08;5.40;;;1.60;;
60610;SDS011;46439;51.164;13.572;2023-12-22T13:41:39;1.10;;;0.80;;
60610;SDS011;46439;51.164;13.572;2023-12-22T13:44:11;1.80;;;1.10;;
60610;SDS011;46439;51.164;13.572;2023-12-22T13:46:40;9.30;;;3.60;;
60610;SDS011;46439;51.164;13.572;2023-12-22T13:49:09;14.20;;;4.70;;
60610;SDS011;46439;51.164;13.572;2023-12-22T13:51:41;6.90;;;2.50;;
60610;SDS011;46439;51.164;13.572;2023-12-22T13:54:10;9.20;;;3.60;;
60610;SDS011;46439;51.164;13.572;2023-12-22T13:56:38;3.60;;;1.90;;
60610;SDS011;46439;51.164;13.572;2023-12-22T13:59:08;3.90;;;1.70;;
60610;SDS011;46439;51.164;13.572;2023-12-22T14:01:37;2.10;;;1.20;;
60610;SDS011;46439;51.164;13.572;2023-12-22T14:04:06;1.30;;;0.90;;
60610;SDS011;46439;51.164;13.572;2023-12-22T14:06:36;1.40;;;0.90;;
60610;SDS011;46439;51.164;13.572;2023-12-22T14:09:05;2.40;;;1.20;;
60610;SDS011;46439;51.164;13.572;2023-12-22T14:11:34;1.00;;;0.80;;
60610;SDS011;46439;51.164;13.572;2023-12-22T14:14:04;2.90;;;1.20;;
60610;SDS011;46439;51.164;13.572;2023-12-22T14:16:37;2.30;;;1.20;;
60610;SDS011;46439;51.164;13.572;2023-12-22T14:19:06;2.70;;;1.20;;
60610;SDS011;46439;51.164;13.572;2023-12-22T14:21:34;2.40;;;1.10;;
60610;SDS011;46439;51.164;13.572;2023-12-22T14:24:02;0.80;;;0.80;;
60610;SDS011;46439;51.164;13.572;2023-12-22T14:26:30;0.70;;;0.70;;
60610;SDS011;46439;51.164;13.572;2023-12-22T14:28:58;2.10;;;1.10;;
60610;SDS011;46439;51.164;13.572;2023-12-22T14:31:27;1.00;;;0.70;;
60610;SDS011;46439;51.164;13.572;2023-12-22T14:33:55;1.20;;;1.10;;
60610;SDS011;46439;51.164;13.572;2023-12-22T14:36:24;1.50;;;1.20;;
60610;SDS011;46439;51.164;13.572;2023-12-22T14:38:52;2.60;;;1.20;;
60610;SDS011;46439;51.164;13.572;2023-12-22T14:41:20;2.40;;;1.70;;
60610;SDS011;46439;51.164;13.572;2023-12-22T14:43:48;2.10;;;1.40;;
60610;SDS011;46439;51.164;13.572;2023-12-22T14:46:16;1.50;;;1.00;;
60610;SDS011;46439;51.164;13.572;2023-12-22T14:48:44;2.20;;;1.20;;